Time;durP1;ratioP1;P1;durP2;ratioP2;P2;SDS_P1;SDS_P2;PMS_P1;PMS_P2;Temp;Humidity;BMP_temperature;BMP_pressure;BME280_temperature;BME280_humidity;BME280_pressure;Samples;Min_cycle;Max_cycle;Signal;HPM_P1;HPM_P2
2023/04/26 00:02:10;;;;;;;0.00;0.00;;;5.10;78.00;;;;;;4933466;29;20130;-65
2023/04/26 00:04:39;;;;;;;0.00;0.00;;;5.00;78.10;;;;;;4951408;29;20043;-65
2023/04/26 00:07:06;;;;;;;0.08;0.08;;;5.00;78.10;;;;;;4951675;29;20122;-65
2023/04/26 00:09:32;;;;;;;0.00;0.00;;;4.90;77.70;;;;;;4951485;28;20042;-65
2023/04/26 00:11:58;;;;;;;0.00;0.00;;;4.90;78.10;;;;;;4934997;29;20488;-65
2023/04/26 00:14:24;;;;;;;0.00;0.00;;;4.90;78.00;;;;;;4952326;29;20111;-65
2023/04/26 00:16:50;;;;;;;0.00;0.00;;;4.90;78.10;;;;;;4942513;29;20125;-65
2023/04/26 00:19:17;;;;;;;0.00;0.00;;;4.90;78.00;;;;;;4934251;29;20131;-65
2023/04/26 00:21:42;;;;;;;0.00;0.00;;;4.90;78.10;;;;;;4951314;29;20488;-65
2023/04/26 00:24:08;;;;;;;0.00;0.00;;;5.00;78.10;;;;;;4933732;29;20079;-65
2023/04/26 00:26:34;;;;;;;0.00;0.00;;;5.00;78.20;;;;;;4946211;29;20035;-65
2023/04/26 00:29:00;;;;;;;0.00;0.00;;;5.00;78.40;;;;;;4951247;29;20054;-65
2023/04/26 00:31:26;;;;;;;0.00;0.00;;;5.00;78.10;;;;;;4949589;29;20039;-65
2023/04/26 00:33:52;;;;;;;0.00;0.00;;;5.00;78.40;;;;;;4914981;29;20070;-65
2023/04/26 00:36:18;;;;;;;0.00;0.00;;;5.00;79.00;;;;;;4931920;29;20048;-64
2023/04/26 00:38:47;;;;;;;0.05;0.05;;;5.00;79.20;;;;;;4899420;29;20052;-65
2023/04/26 00:41:13;;;;;;;0.00;0.00;;;5.00;79.70;;;;;;4951071;29;20133;-65
2023/04/26 00:43:39;;;;;;;0.08;0.08;;;5.00;80.40;;;;;;4918067;29;20067;-65
2023/04/26 00:46:05;;;;;;;0.00;0.00;;;5.00;80.40;;;;;;4942832;29;20782;-65
2023/04/26 00:48:32;;;;;;;0.00;0.00;;;5.10;80.40;;;;;;4948880;29;20531;-65
2023/04/26 00:50:58;;;;;;;0.00;0.00;;;5.10;80.80;;;;;;4950665;29;20114;-65
2023/04/26 00:53:24;;;;;;;0.00;0.00;;;5.10;80.60;;;;;;4950736;29;20516;-65
2023/04/26 00:55:50;;;;;;;0.00;0.00;;;5.10;81.20;;;;;;4930369;29;20215;-65
2023/04/26 00:58:17;;;;;;;0.10;0.10;;;5.00;81.30;;;;;;4932080;29;20134;-65
2023/04/26 01:00:43;;;;;;;0.22;0.22;;;5.10;81.30;;;;;;4941710;29;20070;-65
2023/04/26 01:03:09;;;;;;;0.00;0.00;;;5.10;80.90;;;;;;4950895;29;20048;-65
2023/04/26 01:05:36;;;;;;;0.00;0.00;;;5.10;80.70;;;;;;4952612;28;20054;-65
2023/04/26 01:08:03;;;;;;;0.00;0.00;;;5.20;81.10;;;;;;4916015;29;20054;-64
2023/04/26 01:10:31;;;;;;;0.00;0.00;;;5.10;81.10;;;;;;4935243;29;20056;-65
2023/04/26 01:12:57;;;;;;;0.10;0.10;;;5.20;81.10;;;;;;4935068;29;20048;-65
2023/04/26 01:15:23;;;;;;;0.00;0.00;;;5.20;81.20;;;;;;4935374;29;20047;-65
2023/04/26 01:17:49;;;;;;;0.00;0.00;;;5.20;81.30;;;;;;4936490;29;20040;-65
2023/04/26 01:20:15;;;;;;;0.00;0.00;;;5.20;81.50;;;;;;4954086;29;20054;-65
2023/04/26 01:22:41;;;;;;;0.00;0.00;;;5.20;81.40;;;;;;4954422;29;20051;-64
2023/04/26 01:25:11;;;;;;;0.00;0.00;;;5.20;81.40;;;;;;4947620;29;20063;-66
2023/04/26 01:27:37;;;;;;;0.00;0.00;;;5.20;81.30;;;;;;4935305;29;20043;-65
2023/04/26 01:30:03;;;;;;;0.00;0.00;;;5.20;81.30;;;;;;4935118;29;20158;-64
2023/04/26 01:32:29;;;;;;;0.00;0.00;;;5.20;81.40;;;;;;4935037;29;20568;-65
2023/04/26 01:34:55;;;;;;;0.00;0.00;;;5.10;81.40;;;;;;4935327;29;20044;-65
2023/04/26 01:37:20;;;;;;;0.00;0.00;;;5.10;81.40;;;;;;4942591;29;20043;-65
2023/04/26 01:39:46;;;;;;;0.10;0.10;;;5.10;81.40;;;;;;4954083;29;20134;-65
2023/04/26 01:42:11;;;;;;;0.10;0.10;;;5.10;81.30;;;;;;4953325;29;20050;-65
2023/04/26 01:44:37;;;;;;;0.00;0.00;;;5.10;81.30;;;;;;4953666;29;20055;-65
2023/04/26 01:47:03;;;;;;;0.00;0.00;;;5.10;81.30;;;;;;4953653;29;20051;-65
2023/04/26 01:49:29;;;;;;;0.00;0.00;;;5.10;81.20;;;;;;4934588;29;20080;-65
2023/04/26 01:51:54;;;;;;;0.00;0.00;;;5.10;81.20;;;;;;4940850;29;20674;-65
2023/04/26 01:54:20;;;;;;;0.00;0.00;;;5.10;81.00;;;;;;4953557;29;20067;-65
2023/04/26 01:56:46;;;;;;;0.00;0.00;;;5.10;81.10;;;;;;4953799;29;20043;-65
2023/04/26 01:59:11;;;;;;;0.00;0.00;;;5.10;80.90;;;;;;4923648;29;20130;-65
2023/04/26 02:01:37;;;;;;;0.00;0.00;;;5.10;80.90;;;;;;4953179;29;20049;-65
2023/04/26 02:04:04;;;;;;;0.00;0.00;;;5.00;81.10;;;;;;4936094;29;20542;-64
2023/04/26 02:06:31;;;;;;;0.00;0.00;;;5.00;81.10;;;;;;4922722;29;20055;-65
2023/04/26 02:08:56;;;;;;;0.00;0.00;;;5.00;81.10;;;;;;4919324;29;20456;-65
2023/04/26 02:11:22;;;;;;;0.00;0.00;;;5.00;81.10;;;;;;4948352;29;20047;-65
2023/04/26 02:13:47;;;;;;;0.00;0.00;;;5.00;81.00;;;;;;4932538;29;20040;-65
2023/04/26 02:16:15;;;;;;;0.00;0.00;;;4.90;81.10;;;;;;4932943;29;20051;-65
2023/04/26 02:18:40;;;;;;;5.95;2.85;;;4.90;81.20;;;;;;4933001;29;20381;-64
2023/04/26 02:21:10;;;;;;;0.00;0.00;;;4.90;81.30;;;;;;4933553;29;20052;-65
2023/04/26 02:23:37;;;;;;;0.00;0.00;;;4.90;81.30;;;;;;4934045;29;20055;-64
2023/04/26 02:26:03;;;;;;;0.03;0.03;;;4.90;81.20;;;;;;4934330;29;20055;-65
2023/04/26 02:28:29;;;;;;;0.00;0.00;;;4.80;81.10;;;;;;4947088;29;20469;-65
2023/04/26 02:30:57;;;;;;;0.00;0.00;;;4.80;80.90;;;;;;4953823;29;20130;-65
2023/04/26 02:33:23;;;;;;;0.00;0.00;;;4.80;80.80;;;;;;4936074;29;20583;-65
2023/04/26 02:35:49;;;;;;;0.00;0.00;;;4.70;80.80;;;;;;4952891;29;20122;-65
2023/04/26 02:38:14;;;;;;;0.00;0.00;;;4.70;80.90;;;;;;4952625;29;20531;-66
2023/04/26 02:40:40;;;;;;;0.00;0.00;;;4.70;80.90;;;;;;4952611;29;20039;-65
2023/04/26 02:43:06;;;;;;;0.10;0.10;;;4.70;80.70;;;;;;4952288;28;20051;-66
2023/04/26 02:45:31;;;;;;;0.00;0.00;;;4.60;80.60;;;;;;4951373;29;20055;-65
2023/04/26 02:47:57;;;;;;;0.00;0.00;;;4.60;80.70;;;;;;4951992;29;20050;-65
2023/04/26 02:50:22;;;;;;;0.00;0.00;;;4.60;80.60;;;;;;4934708;29;20484;-65
2023/04/26 02:52:48;;;;;;;0.00;0.00;;;4.60;80.60;;;;;;4951884;29;20048;-65
2023/04/26 02:55:13;;;;;;;0.00;0.00;;;4.50;80.50;;;;;;4951944;29;20040;-64
2023/04/26 02:57:39;;;;;;;0.10;0.10;;;4.50;80.50;;;;;;4951435;29;20071;-65
2023/04/26 03:00:06;;;;;;;0.00;0.00;;;4.50;80.20;;;;;;4951840;29;20054;-65
2023/04/26 03:02:32;;;;;;;0.00;0.00;;;4.40;80.40;;;;;;4934781;29;20051;-64
2023/04/26 03:04:58;;;;;;;0.00;0.00;;;4.40;80.40;;;;;;4916675;29;20048;-65
2023/04/26 03:07:23;;;;;;;0.20;0.20;;;4.40;80.40;;;;;;4951346;29;20058;-65
2023/04/26 03:09:49;;;;;;;0.00;0.00;;;4.40;80.50;;;;;;4934261;29;20051;-65
2023/04/26 03:12:14;;;;;;;0.00;0.00;;;4.40;80.50;;;;;;4933643;29;21197;-65
2023/04/26 03:14:40;;;;;;;0.00;0.00;;;4.40;80.50;;;;;;4951152;29;20102;-65
2023/04/26 03:17:05;;;;;;;0.00;0.00;;;4.50;80.60;;;;;;4951264;29;20102;-65
2023/04/26 03:19:31;;;;;;;0.00;0.00;;;4.50;80.50;;;;;;4951890;29;20043;-65
2023/04/26 03:21:57;;;;;;;0.00;0.00;;;4.50;80.60;;;;;;4919213;29;20043;-65
2023/04/26 03:24:22;;;;;;;0.00;0.00;;;4.50;80.60;;;;;;4951602;29;20504;-65
2023/04/26 03:26:48;;;;;;;0.00;0.00;;;4.60;80.60;;;;;;4951389;29;20042;-64
2023/04/26 03:29:14;;;;;;;0.00;0.00;;;4.50;80.60;;;;;;4950883;28;20043;-64
2023/04/26 03:31:40;;;;;;;0.00;0.00;;;4.50;80.60;;;;;;4951140;29;20527;-65
2023/04/26 03:34:06;;;;;;;0.00;0.00;;;4.50;80.60;;;;;;4950877;29;20051;-65
2023/04/26 03:36:32;;;;;;;0.00;0.00;;;4.60;80.60;;;;;;4951099;29;20047;-65
2023/04/26 03:38:58;;;;;;;0.00;0.00;;;4.60;80.70;;;;;;4950466;29;20039;-65
2023/04/26 03:41:23;;;;;;;0.00;0.00;;;4.60;80.70;;;;;;4949616;29;20118;-65
2023/04/26 03:43:49;;;;;;;0.00;0.00;;;4.50;80.70;;;;;;4904434;29;1041149;-65
2023/04/26 03:46:15;;;;;;;0.00;0.00;;;4.50;80.60;;;;;;4951760;29;20043;-66
2023/04/26 03:48:40;;;;;;;0.10;0.10;;;4.40;80.90;;;;;;4951722;29;20039;-66
2023/04/26 03:51:06;;;;;;;0.00;0.00;;;4.40;81.10;;;;;;4935827;29;20509;-66
2023/04/26 03:53:32;;;;;;;0.00;0.00;;;4.30;81.40;;;;;;4932414;29;20044;-65
2023/04/26 03:55:57;;;;;;;0.00;0.00;;;4.30;81.40;;;;;;4915794;29;20524;-65
2023/04/26 03:58:26;;;;;;;0.00;0.00;;;4.20;81.60;;;;;;4932634;29;20079;-65
2023/04/26 04:00:55;;;;;;;0.00;0.00;;;4.20;81.60;;;;;;4931159;29;20047;-65
2023/04/26 04:03:21;;;;;;;0.00;0.00;;;4.20;81.80;;;;;;4947273;29;21941;-65
2023/04/26 04:05:46;;;;;;;0.00;0.00;;;4.20;81.70;;;;;;4966322;28;20158;-65
2023/04/26 04:08:12;;;;;;;0.10;0.10;;;4.20;81.70;;;;;;4951420;29;20039;-65
2023/04/26 04:10:37;;;;;;;0.00;0.00;;;4.20;81.60;;;;;;4951274;29;20081;-65
2023/04/26 04:13:03;;;;;;;0.00;0.00;;;4.20;81.60;;;;;;4952067;29;20047;-65
2023/04/26 04:15:28;;;;;;;0.00;0.00;;;4.20;81.60;;;;;;4966583;28;20071;-65
2023/04/26 04:17:54;;;;;;;0.00;0.00;;;4.30;81.60;;;;;;4950868;29;20608;-65
2023/04/26 04:20:20;;;;;;;0.00;0.00;;;4.40;81.50;;;;;;4949898;28;20138;-65
2023/04/26 04:22:46;;;;;;;0.00;0.00;;;4.40;81.30;;;;;;4950455;29;20055;-65
2023/04/26 04:25:12;;;;;;;0.00;0.00;;;4.40;81.30;;;;;;4937693;29;20051;-65
2023/04/26 04:27:41;;;;;;;0.03;0.03;;;4.40;81.40;;;;;;4932051;29;20048;-64
2023/04/26 04:30:07;;;;;;;0.00;0.00;;;4.40;81.50;;;;;;4932261;29;20127;-65
2023/04/26 04:32:34;;;;;;;0.00;0.00;;;4.30;81.60;;;;;;4931634;29;20047;-65
2023/04/26 04:35:00;;;;;;;0.00;0.00;;;4.40;81.80;;;;;;4932089;29;20084;-65
2023/04/26 04:37:26;;;;;;;0.00;0.00;;;4.40;81.90;;;;;;4932329;29;20051;-65
2023/04/26 04:39:52;;;;;;;0.00;0.00;;;4.40;82.00;;;;;;4943463;28;20047;-65
2023/04/26 04:42:18;;;;;;;0.00;0.00;;;4.40;82.10;;;;;;4954264;28;20066;-66
2023/04/26 04:44:44;;;;;;;0.00;0.00;;;4.50;82.10;;;;;;4954137;28;20500;-66
2023/04/26 04:47:12;;;;;;;0.00;0.00;;;4.40;82.30;;;;;;4954543;29;20043;-65
2023/04/26 04:49:38;;;;;;;0.10;0.10;;;4.50;82.20;;;;;;4954382;29;20062;-64
2023/04/26 04:52:05;;;;;;;0.00;0.00;;;4.40;82.20;;;;;;4937099;29;20412;-64
2023/04/26 04:54:30;;;;;;;0.00;0.00;;;4.50;82.20;;;;;;4953303;29;20524;-65
2023/04/26 04:56:56;;;;;;;0.10;0.10;;;4.40;82.30;;;;;;4937063;29;20058;-63
2023/04/26 04:59:22;;;;;;;0.00;0.00;;;4.40;82.40;;;;;;4950810;29;20098;-65
2023/04/26 05:01:48;;;;;;;0.00;0.00;;;4.60;83.60;;;;;;4953523;29;20039;-65
2023/04/26 05:04:14;;;;;;;0.00;0.00;;;4.70;83.10;;;;;;4937731;29;20512;-64
2023/04/26 05:06:39;;;;;;;0.00;0.00;;;4.60;82.70;;;;;;4936531;29;20098;-65
2023/04/26 05:09:05;;;;;;;1.00;0.30;;;4.60;82.40;;;;;;4953307;29;20070;-65
2023/04/26 05:11:31;;;;;;;0.00;0.00;;;4.60;82.30;;;;;;4936632;29;20046;-65
2023/04/26 05:13:58;;;;;;;0.00;0.00;;;4.60;82.10;;;;;;4953549;29;20063;-65
2023/04/26 05:16:23;;;;;;;0.00;0.00;;;4.60;82.00;;;;;;4943682;29;20678;-65
2023/04/26 05:18:49;;;;;;;0.00;0.00;;;4.60;81.80;;;;;;4934657;29;20047;-65
2023/04/26 05:21:14;;;;;;;0.10;0.10;;;4.60;81.90;;;;;;4934840;29;20103;-64
2023/04/26 05:23:40;;;;;;;0.00;0.00;;;4.60;81.80;;;;;;4933922;29;20048;-65
2023/04/26 05:26:06;;;;;;;0.10;0.10;;;4.60;81.70;;;;;;4947789;29;20039;-65
2023/04/26 05:28:35;;;;;;;0.00;0.00;;;4.70;81.60;;;;;;4953614;29;20082;-65
2023/04/26 05:31:01;;;;;;;0.00;0.00;;;4.70;81.40;;;;;;4953888;29;20705;-64
2023/04/26 05:33:27;;;;;;;0.10;0.10;;;4.80;81.20;;;;;;4952970;29;20083;-65
2023/04/26 05:35:53;;;;;;;0.00;0.00;;;4.70;80.90;;;;;;4952994;29;20039;-64
2023/04/26 05:38:20;;;;;;;0.10;0.10;;;4.90;81.20;;;;;;4935302;29;20047;-64
2023/04/26 05:40:47;;;;;;;0.10;0.10;;;5.00;81.10;;;;;;4930635;29;20547;-58
2023/04/26 05:43:13;;;;;;;0.00;0.00;;;6.00;89.50;;;;;;4947975;29;20055;-67
2023/04/26 05:45:39;;;;;;;0.00;0.00;;;6.00;78.20;;;;;;4950518;29;20065;-67
2023/04/26 05:48:05;;;;;;;0.05;0.05;;;6.00;78.10;;;;;;4947477;29;20047;-67
2023/04/26 05:50:30;;;;;;;0.00;0.00;;;5.80;78.70;;;;;;4918830;28;20039;-67
2023/04/26 05:52:56;;;;;;;0.00;0.00;;;5.70;79.00;;;;;;4939006;29;20047;-67
2023/04/26 05:55:23;;;;;;;0.00;0.00;;;5.60;79.60;;;;;;4937190;29;20047;-67
2023/04/26 05:57:48;;;;;;;0.00;0.00;;;5.60;80.40;;;;;;4909881;29;20043;-66
2023/04/26 06:00:15;;;;;;;0.00;0.00;;;5.60;80.70;;;;;;4939991;29;20406;-67
2023/04/26 06:02:41;;;;;;;0.00;0.00;;;5.60;80.90;;;;;;4940187;29;20043;-67
2023/04/26 06:05:07;;;;;;;0.13;0.13;;;5.70;80.20;;;;;;4940705;29;20051;-66
2023/04/26 06:07:33;;;;;;;0.00;0.00;;;5.70;79.80;;;;;;4938966;29;20105;-66
2023/04/26 06:10:02;;;;;;;0.00;0.00;;;5.80;79.20;;;;;;4939282;28;20059;-67
2023/04/26 06:12:27;;;;;;;0.00;0.00;;;5.90;77.00;;;;;;4938107;29;20039;-67
2023/04/26 06:14:53;;;;;;;0.00;0.00;;;6.00;77.10;;;;;;4938485;29;20119;-67
2023/04/26 06:17:18;;;;;;;0.00;0.00;;;6.10;76.30;;;;;;4939690;29;20047;-67
2023/04/26 06:19:44;;;;;;;0.00;0.00;;;6.20;76.30;;;;;;4937949;29;20075;-67
2023/04/26 06:22:09;;;;;;;0.00;0.00;;;6.40;76.50;;;;;;4939078;29;20802;-67
2023/04/26 06:24:35;;;;;;;0.00;0.00;;;6.60;74.40;;;;;;4940576;29;20091;-68
2023/04/26 06:27:01;;;;;;;0.00;0.00;;;6.60;73.90;;;;;;4939366;29;20086;-67
2023/04/26 06:29:31;;;;;;;3.20;2.90;;;6.70;73.50;;;;;;4940682;29;20055;-67
2023/04/26 06:31:56;;;;;;;0.00;0.00;;;6.70;73.70;;;;;;4938763;29;20933;-68
2023/04/26 06:34:22;;;;;;;0.00;0.00;;;6.80;73.80;;;;;;4928499;29;20055;-67
2023/04/26 06:36:48;;;;;;;0.00;0.00;;;6.80;73.70;;;;;;4939232;29;20047;-67
2023/04/26 06:39:13;;;;;;;0.00;0.00;;;6.80;74.20;;;;;;4940360;28;20059;-67
2023/04/26 06:41:39;;;;;;;0.00;0.00;;;6.80;74.50;;;;;;4939514;28;20044;-67
2023/04/26 06:44:04;;;;;;;0.10;0.10;;;6.90;74.40;;;;;;4939118;28;20062;-63
2023/04/26 06:46:30;;;;;;;0.00;0.00;;;7.00;74.90;;;;;;4929804;29;20070;-63
2023/04/26 06:48:56;;;;;;;0.00;0.00;;;7.10;72.20;;;;;;4939743;29;20497;-64
2023/04/26 06:51:21;;;;;;;0.00;0.00;;;7.00;70.60;;;;;;4939568;29;20047;-63
2023/04/26 06:53:47;;;;;;;0.00;0.00;;;7.10;70.10;;;;;;4940458;29;20055;-63
2023/04/26 06:56:14;;;;;;;0.00;0.00;;;7.10;69.20;;;;;;4939841;29;20053;-62
2023/04/26 06:58:56;;;;;;;0.00;0.00;;;7.00;70.00;;;;;;4913414;29;20055;-63
2023/04/26 07:01:22;;;;;;;0.00;0.00;;;7.10;69.90;;;;;;4939320;28;20036;-64
2023/04/26 07:03:47;;;;;;;0.00;0.00;;;7.00;69.90;;;;;;4939918;29;20052;-64
2023/04/26 07:06:13;;;;;;;0.00;0.00;;;7.00;70.30;;;;;;4931714;28;20039;-63
2023/04/26 07:08:38;;;;;;;0.10;0.10;;;7.00;70.70;;;;;;4940285;29;20145;-63
2023/04/26 07:11:09;;;;;;;0.00;0.00;;;7.00;71.00;;;;;;4939761;28;20489;-63
2023/04/26 07:13:34;;;;;;;0.00;0.00;;;7.00;70.80;;;;;;4927068;29;20055;-64
2023/04/26 07:16:00;;;;;;;0.20;0.20;;;7.00;72.20;;;;;;4940461;29;20046;-64
2023/04/26 07:18:26;;;;;;;0.10;0.10;;;7.00;71.70;;;;;;4941527;28;21672;-63
2023/04/26 07:20:51;;;;;;;0.00;0.00;;;7.00;72.00;;;;;;4939563;29;20484;-63
2023/04/26 07:23:17;;;;;;;0.00;0.00;;;7.00;73.00;;;;;;4940153;29;20056;-64
2023/04/26 07:25:42;;;;;;;0.00;0.00;;;7.10;73.10;;;;;;4938806;29;20116;-64
2023/04/26 07:28:08;;;;;;;0.00;0.00;;;7.10;73.40;;;;;;4939565;29;20094;-63
2023/04/26 07:30:33;;;;;;;0.00;0.00;;;7.20;73.00;;;;;;4940391;29;20112;-63
2023/04/26 07:32:59;;;;;;;0.00;0.00;;;7.20;73.20;;;;;;4927330;29;20060;-64
2023/04/26 07:35:25;;;;;;;0.00;0.00;;;7.30;73.50;;;;;;4939442;29;20086;-63
2023/04/26 07:37:51;;;;;;;0.00;0.00;;;7.30;72.10;;;;;;4937196;29;20564;-63
2023/04/26 07:40:17;;;;;;;0.10;0.10;;;7.30;73.40;;;;;;4938465;29;20047;-64
2023/04/26 07:42:43;;;;;;;0.00;0.00;;;7.50;73.30;;;;;;4938724;29;20043;-63
2023/04/26 07:45:09;;;;;;;0.00;0.00;;;7.60;72.90;;;;;;4928496;29;21049;-63
2023/04/26 07:47:35;;;;;;;0.00;0.00;;;7.60;73.00;;;;;;4938212;29;20055;-63
2023/04/26 07:50:00;;;;;;;0.00;0.00;;;7.60;67.90;;;;;;4940026;28;20059;-64
2023/04/26 07:52:26;;;;;;;0.00;0.00;;;7.80;68.70;;;;;;4938327;29;20551;-64
2023/04/26 07:54:51;;;;;;;0.00;0.00;;;7.80;67.70;;;;;;4943098;29;20043;-63
2023/04/26 07:57:17;;;;;;;0.00;0.00;;;7.90;67.10;;;;;;4939262;29;20051;-63
2023/04/26 07:59:42;;;;;;;0.10;0.10;;;7.90;66.80;;;;;;4938289;29;20056;-63
2023/04/26 08:02:08;;;;;;;0.00;0.00;;;7.90;67.40;;;;;;4938098;29;20047;-63
2023/04/26 08:04:34;;;;;;;0.00;0.00;;;8.00;69.00;;;;;;4939091;29;20122;-63
2023/04/26 08:07:02;;;;;;;0.10;0.10;;;8.00;67.90;;;;;;4944086;29;20031;-63
2023/04/26 08:09:29;;;;;;;0.00;0.00;;;8.00;68.20;;;;;;4938620;28;20190;-64
2023/04/26 08:11:55;;;;;;;0.00;0.00;;;7.90;68.90;;;;;;4937079;29;20066;-63
2023/04/26 08:14:21;;;;;;;0.17;0.17;;;7.90;66.70;;;;;;4938562;29;20047;-63
2023/04/26 08:16:46;;;;;;;0.00;0.00;;;7.80;65.20;;;;;;4937864;29;20566;-64
2023/04/26 08:19:12;;;;;;;0.00;0.00;;;7.90;65.50;;;;;;4938025;29;20077;-63
2023/04/26 08:21:37;;;;;;;0.00;0.00;;;7.90;64.70;;;;;;4936331;29;20074;-63
2023/04/26 08:24:03;;;;;;;0.00;0.00;;;7.90;65.40;;;;;;4937869;29;20059;-63
2023/04/26 08:26:29;;;;;;;0.00;0.00;;;8.00;65.40;;;;;;4936407;29;20617;-63
2023/04/26 08:28:56;;;;;;;0.00;0.00;;;8.10;65.50;;;;;;4927377;29;20086;-62
2023/04/26 08:31:21;;;;;;;0.00;0.00;;;8.10;67.40;;;;;;4938182;29;20046;-64
2023/04/26 08:33:47;;;;;;;0.00;0.00;;;8.20;66.90;;;;;;4938707;29;20059;-64
2023/04/26 08:36:14;;;;;;;0.00;0.00;;;8.20;67.50;;;;;;4927622;29;20051;-63
2023/04/26 08:38:39;;;;;;;0.00;0.00;;;8.20;67.60;;;;;;4939479;29;20063;-63
2023/04/26 08:41:08;;;;;;;0.00;0.00;;;8.20;68.50;;;;;;4938503;29;20058;-64
2023/04/26 08:43:36;;;;;;;0.10;0.10;;;8.10;68.90;;;;;;4937448;29;20071;-63
2023/04/26 08:46:06;;;;;;;0.00;0.00;;;8.00;69.40;;;;;;4937370;28;20432;-64
2023/04/26 08:48:35;;;;;;;0.85;0.85;;;7.70;70.50;;;;;;4937184;28;20568;-64
2023/04/26 08:51:02;;;;;;;0.00;0.00;;;7.60;71.50;;;;;;4937907;29;20428;-64
2023/04/26 08:53:29;;;;;;;0.00;0.00;;;7.20;72.90;;;;;;4927299;29;20056;-64
2023/04/26 08:55:55;;;;;;;0.00;0.00;;;7.20;73.20;;;;;;4937727;29;20078;-64
2023/04/26 08:58:22;;;;;;;0.00;0.00;;;7.10;73.00;;;;;;4937303;29;20059;-64
2023/04/26 09:00:49;;;;;;;0.00;0.00;;;7.20;72.90;;;;;;4934569;29;20090;-65
2023/04/26 09:03:15;;;;;;;1.52;1.45;;;7.10;72.90;;;;;;4937935;28;20956;-64
2023/04/26 09:05:44;;;;;;;0.00;0.00;;;7.20;72.90;;;;;;4937457;28;20039;-64
2023/04/26 09:08:15;;;;;;;0.00;0.00;;;7.30;72.40;;;;;;4937041;29;20763;-64
2023/04/26 09:10:41;;;;;;;0.97;0.97;;;7.40;71.80;;;;;;4938071;28;20063;-64
2023/04/26 09:13:06;;;;;;;0.00;0.00;;;7.50;71.20;;;;;;4936789;29;20047;-63
2023/04/26 09:15:32;;;;;;;0.00;0.00;;;7.60;70.10;;;;;;4937552;29;20119;-64
2023/04/26 09:18:16;;;;;;;0.38;0.38;;;7.80;69.80;;;;;;4937354;29;20098;-64
2023/04/26 09:20:42;;;;;;;0.00;0.00;;;7.90;69.90;;;;;;4937273;29;20040;-63
2023/04/26 09:23:09;;;;;;;0.17;0.17;;;8.10;68.90;;;;;;4937095;29;20044;-64
2023/04/26 09:25:36;;;;;;;0.00;0.00;;;8.10;66.90;;;;;;4935590;29;20074;-64
2023/04/26 09:28:17;;;;;;;0.00;0.00;;;8.20;66.20;;;;;;4939776;29;20090;-65
2023/04/26 09:30:42;;;;;;;0.00;0.00;;;8.30;66.00;;;;;;4940047;29;20044;-65
2023/04/26 09:33:08;;;;;;;1.02;0.98;;;8.40;66.40;;;;;;4940800;28;20044;-62
2023/04/26 09:35:42;;;;;;;0.00;0.00;;;8.40;67.00;;;;;;4929748;29;20497;-61
2023/04/26 09:38:11;;;;;;;0.00;0.00;;;8.50;67.80;;;;;;4942107;29;20047;-62
2023/04/26 09:40:49;;;;;;;0.00;0.00;;;8.60;67.20;;;;;;4940627;29;20039;-61
2023/04/26 09:43:20;;;;;;;0.00;0.00;;;8.60;65.40;;;;;;4940465;29;20070;-62
2023/04/26 09:45:55;;;;;;;0.00;0.00;;;8.60;65.20;;;;;;4940032;29;20039;-62
2023/04/26 09:48:24;;;;;;;0.00;0.00;;;8.60;66.20;;;;;;4939622;29;20584;-62
2023/04/26 09:50:52;;;;;;;0.00;0.00;;;8.60;65.90;;;;;;4940864;29;20058;-63
2023/04/26 09:53:46;;;;;;;0.00;0.00;;;8.50;66.60;;;;;;4940758;29;20055;-63
2023/04/26 09:56:16;;;;;;;0.00;0.00;;;8.50;66.50;;;;;;4941068;28;20052;-63
2023/04/26 09:58:58;;;;;;;0.00;0.00;;;8.30;65.30;;;;;;4941684;28;20059;-63
2023/04/26 10:01:25;;;;;;;0.17;0.17;;;8.20;66.80;;;;;;4941274;29;20094;-63
2023/04/26 10:03:51;;;;;;;0.00;0.00;;;8.20;66.80;;;;;;4939317;29;20051;-63
2023/04/26 10:06:17;;;;;;;0.00;0.00;;;8.20;67.10;;;;;;4941285;29;20038;-63
2023/04/26 10:08:43;;;;;;;0.00;0.00;;;8.10;66.90;;;;;;4940628;29;20114;-63
2023/04/26 10:11:12;;;;;;;0.00;0.00;;;8.10;67.00;;;;;;4941862;28;20035;-63
2023/04/26 10:13:40;;;;;;;0.00;0.00;;;8.10;67.30;;;;;;4914181;29;20106;-63
2023/04/26 10:16:06;;;;;;;0.00;0.00;;;8.20;66.20;;;;;;4939283;29;20102;-63
2023/04/26 10:18:33;;;;;;;0.10;0.10;;;8.30;66.60;;;;;;4940270;29;20416;-64
2023/04/26 10:21:03;;;;;;;0.10;0.10;;;8.40;67.60;;;;;;4941360;28;20042;-62
2023/04/26 10:23:29;;;;;;;0.05;0.05;;;8.40;68.10;;;;;;4945115;28;20511;-63
2023/04/26 10:25:55;;;;;;;0.00;0.00;;;8.40;67.50;;;;;;4938828;28;20055;-63
2023/04/26 10:28:39;;;;;;;0.00;0.00;;;8.40;67.00;;;;;;4940233;29;20047;-63
2023/04/26 10:31:06;;;;;;;0.00;0.00;;;8.60;67.50;;;;;;4945094;29;20087;-63
2023/04/26 10:33:32;;;;;;;0.00;0.00;;;8.60;67.20;;;;;;4940840;28;20086;-63
2023/04/26 10:36:03;;;;;;;0.00;0.00;;;8.40;66.10;;;;;;4940087;29;20047;-63
2023/04/26 10:38:29;;;;;;;0.00;0.00;;;8.30;67.60;;;;;;4940145;28;20082;-67
2023/04/26 10:41:15;;;;;;;0.10;0.10;;;8.10;68.90;;;;;;4938786;29;20638;-63
2023/04/26 10:43:41;;;;;;;0.00;0.00;;;8.00;71.20;;;;;;4941630;28;20074;-62
2023/04/26 10:46:34;;;;;;;0.00;0.00;;;7.70;73.10;;;;;;4948036;28;20092;-63
2023/04/26 10:49:15;;;;;;;0.00;0.00;;;7.30;75.00;;;;;;4929047;28;20074;-63
2023/04/26 10:52:09;;;;;;;0.07;0.07;;;7.00;76.30;;;;;;4938659;28;20106;-63
2023/04/26 10:54:48;;;;;;;0.00;0.00;;;6.60;77.00;;;;;;4944608;28;20058;-63
2023/04/26 10:57:14;;;;;;;0.00;0.00;;;6.30;77.20;;;;;;4943875;28;20046;-62
2023/04/26 11:00:12;;;;;;;0.98;0.98;;;6.20;77.40;;;;;;4951233;28;20515;-63
2023/04/26 11:02:54;;;;;;;0.00;0.00;;;6.10;78.70;;;;;;4950424;29;20040;-63
2023/04/26 11:05:41;;;;;;;0.35;0.35;;;6.00;79.00;;;;;;4951057;29;20094;-63
2023/04/26 11:08:12;;;;;;;0.00;0.00;;;6.10;79.40;;;;;;4951456;28;20054;-63
2023/04/26 11:10:38;;;;;;;0.10;0.10;;;6.10;79.20;;;;;;4951534;29;20078;-63
2023/04/26 11:13:04;;;;;;;0.00;0.00;;;6.30;79.30;;;;;;4950563;29;20079;-63
2023/04/26 11:15:30;;;;;;;0.00;0.00;;;6.50;79.40;;;;;;4946709;28;20443;-63
2023/04/26 11:17:56;;;;;;;0.40;0.40;;;6.70;79.40;;;;;;4955248;28;20050;-63
2023/04/26 11:20:27;;;;;;;0.00;0.00;;;6.90;78.40;;;;;;4952209;28;20051;-62
2023/04/26 11:22:52;;;;;;;0.00;0.00;;;7.10;78.50;;;;;;4949788;29;20404;-63
2023/04/26 11:25:18;;;;;;;0.00;0.00;;;7.30;77.40;;;;;;4951248;28;20065;-63
2023/04/26 11:27:44;;;;;;;0.10;0.10;;;7.40;76.60;;;;;;4951695;28;20086;-63
2023/04/26 11:30:11;;;;;;;0.00;0.00;;;7.50;74.40;;;;;;4951577;29;20051;-63
2023/04/26 11:32:36;;;;;;;0.00;0.00;;;7.70;75.10;;;;;;4956193;28;20122;-62
2023/04/26 11:35:03;;;;;;;0.03;0.03;;;7.90;75.00;;;;;;4950851;28;20674;-63
2023/04/26 11:37:28;;;;;;;0.73;0.73;;;8.00;72.50;;;;;;4952355;29;20101;-62
2023/04/26 11:39:56;;;;;;;0.00;0.00;;;8.10;70.10;;;;;;4951617;29;20493;-63
2023/04/26 11:42:25;;;;;;;12.48;2.55;;;8.20;69.80;;;;;;4947436;29;20168;-63
2023/04/26 11:44:53;;;;;;;0.10;0.10;;;8.30;68.70;;;;;;4950200;28;20066;-63
2023/04/26 11:47:19;;;;;;;0.00;0.00;;;8.40;65.80;;;;;;4945518;29;20043;-63
2023/04/26 11:49:45;;;;;;;0.00;0.00;;;8.40;65.60;;;;;;4948629;28;20055;-62
2023/04/26 11:52:12;;;;;;;0.00;0.00;;;8.50;66.00;;;;;;4947641;28;20035;-64
2023/04/26 11:54:37;;;;;;;0.00;0.00;;;8.50;61.70;;;;;;4948325;29;20047;-63
2023/04/26 11:57:14;;;;;;;2.40;1.55;;;8.60;62.40;;;;;;4948552;28;20035;-63
2023/04/26 11:59:40;;;;;;;0.00;0.00;;;8.60;62.60;;;;;;4947768;29;20044;-63
2023/04/26 12:02:07;;;;;;;0.00;0.00;;;8.80;62.80;;;;;;4950058;29;20423;-63
2023/04/26 12:04:33;;;;;;;0.00;0.00;;;8.90;63.90;;;;;;4917622;29;20090;-63
2023/04/26 12:06:59;;;;;;;0.00;0.00;;;9.10;60.20;;;;;;4936448;29;20047;-63
2023/04/26 12:09:29;;;;;;;0.10;0.10;;;9.00;59.20;;;;;;4950849;28;20035;-63
2023/04/26 12:12:06;;;;;;;0.00;0.00;;;9.10;58.30;;;;;;4947267;29;20055;-63
2023/04/26 12:14:32;;;;;;;0.03;0.03;;;8.90;57.70;;;;;;4950867;28;20098;-63
2023/04/26 12:17:00;;;;;;;0.00;0.00;;;9.10;60.80;;;;;;4950691;29;20059;-63
2023/04/26 12:19:26;;;;;;;0.00;0.00;;;9.10;58.70;;;;;;4942687;29;20062;-63
2023/04/26 12:21:53;;;;;;;0.65;0.65;;;9.10;58.40;;;;;;4950736;29;20039;-63
2023/04/26 12:24:20;;;;;;;0.00;0.00;;;9.20;61.90;;;;;;4950539;29;20055;-63
2023/04/26 12:26:46;;;;;;;0.00;0.00;;;9.40;63.90;;;;;;4950587;29;20035;-63
2023/04/26 12:29:11;;;;;;;0.00;0.00;;;9.30;65.00;;;;;;4932784;29;20118;-63
2023/04/26 12:31:37;;;;;;;0.00;0.00;;;9.60;62.80;;;;;;4950600;29;20043;-63
2023/04/26 12:34:02;;;;;;;0.00;0.00;;;9.70;62.80;;;;;;4950390;29;20065;-63
2023/04/26 12:36:28;;;;;;;0.00;0.00;;;9.90;61.40;;;;;;4917337;29;20047;-63
2023/04/26 12:38:55;;;;;;;0.00;0.00;;;10.10;59.90;;;;;;4950245;28;20086;-63
2023/04/26 12:41:21;;;;;;;1.65;1.48;;;10.20;58.30;;;;;;4950193;29;20048;-64
2023/04/26 12:43:47;;;;;;;0.03;0.03;;;10.30;57.90;;;;;;4946818;29;20074;-64
2023/04/26 12:46:13;;;;;;;0.00;0.00;;;10.40;58.40;;;;;;4931832;29;20424;-64
2023/04/26 12:48:38;;;;;;;0.00;0.00;;;10.30;57.50;;;;;;4943436;29;20048;-64
2023/04/26 12:51:04;;;;;;;0.00;0.00;;;10.20;58.60;;;;;;4936616;29;20047;-64
2023/04/26 12:53:29;;;;;;;0.00;0.00;;;10.00;59.90;;;;;;4951035;29;20094;-64
2023/04/26 12:55:55;;;;;;;3.80;0.65;;;9.80;60.80;;;;;;4949515;29;20047;-63
2023/04/26 12:58:21;;;;;;;0.00;0.00;;;9.70;61.60;;;;;;4948734;29;20047;-63